createdAt,value
2018-06-11T00:00:01.958Z,14.50
2018-06-11T00:02:30.209Z,12.30
2018-06-11T00:04:58.404Z,14.77
2018-06-11T00:07:26.621Z,13.10
2018-06-11T00:09:54.833Z,13.73
2018-06-11T00:12:23.099Z,14.33
2018-06-11T00:14:51.326Z,13.70
2018-06-11T00:17:19.562Z,14.27
2018-06-11T00:19:47.779Z,14.00
2018-06-11T00:22:16.023Z,13.63
2018-06-11T00:24:44.310Z,14.30
2018-06-11T00:27:12.543Z,14.93
2018-06-11T00:29:40.818Z,13.20
2018-06-11T00:32:09.043Z,12.33
2018-06-11T00:34:37.282Z,14.00
2018-06-11T00:37:05.550Z,14.60
2018-06-11T00:39:33.768Z,14.30
2018-06-11T00:42:02.005Z,14.20
2018-06-11T00:44:30.299Z,14.03
2018-06-11T00:46:58.542Z,15.80
2018-06-11T00:49:26.790Z,15.47
2018-06-11T00:51:54.994Z,14.63
2018-06-11T00:54:23.214Z,14.73
2018-06-11T00:56:51.472Z,14.30
2018-06-11T00:59:19.694Z,15.20
2018-06-11T01:01:47.925Z,14.00
2018-06-11T01:04:16.185Z,14.37
2018-06-11T01:06:44.473Z,13.23
2018-06-11T01:09:12.452Z,13.80
2018-06-11T01:11:40.686Z,14.43
2018-06-11T01:14:08.910Z,12.90
2018-06-11T01:16:37.133Z,14.03
2018-06-11T01:19:05.369Z,13.33
2018-06-11T01:21:33.633Z,13.43
2018-06-11T01:24:01.908Z,13.80
2018-06-11T01:26:30.183Z,13.97
2018-06-11T01:28:58.421Z,13.13
2018-06-11T01:31:26.693Z,12.80
2018-06-11T01:33:54.923Z,12.87
2018-06-11T01:36:23.165Z,14.20
2018-06-11T01:38:51.731Z,14.17
2018-06-11T01:41:19.966Z,13.80
2018-06-11T01:43:48.222Z,13.20
2018-06-11T01:46:16.485Z,14.20
2018-06-11T01:48:44.734Z,14.40
2018-06-11T01:51:13.047Z,15.10
2018-06-11T01:53:41.817Z,14.40
2018-06-11T01:56:10.113Z,13.50
2018-06-11T01:58:38.341Z,14.87
2018-06-11T02:01:06.553Z,14.03
2018-06-11T02:03:34.833Z,15.90
2018-06-11T02:06:03.082Z,16.20
2018-06-11T02:08:31.305Z,16.43
2018-06-11T02:10:59.556Z,14.27
2018-06-11T02:13:27.772Z,15.63
2018-06-11T02:15:56.026Z,16.57
2018-06-11T02:18:24.281Z,16.87
2018-06-11T02:20:52.510Z,17.03
2018-06-11T02:23:20.755Z,16.20
2018-06-11T02:25:48.970Z,16.07
2018-06-11T02:28:17.198Z,15.27
2018-06-11T02:30:45.421Z,17.00
2018-06-11T02:33:13.676Z,17.47
2018-06-11T02:35:41.899Z,16.10
2018-06-11T02:38:10.166Z,15.03
2018-06-11T02:40:38.399Z,15.23
2018-06-11T02:43:06.642Z,16.13
2018-06-11T02:45:34.861Z,15.40
2018-06-11T02:48:03.072Z,15.90
2018-06-11T02:50:31.339Z,14.60
2018-06-11T02:52:59.620Z,15.50
2018-06-11T02:55:27.861Z,15.60
2018-06-11T02:57:56.086Z,16.23
2018-06-11T03:00:24.359Z,15.80
2018-06-11T03:02:52.616Z,13.53
2018-06-11T03:05:20.844Z,15.07
2018-06-11T03:07:49.087Z,14.23
2018-06-11T03:10:17.317Z,15.57
2018-06-11T03:12:45.572Z,15.00
2018-06-11T03:15:13.794Z,14.17
2018-06-11T03:17:42.087Z,14.10
2018-06-11T03:20:10.401Z,13.37
2018-06-11T03:22:38.634Z,13.57
2018-06-11T03:25:06.902Z,14.10
2018-06-11T03:27:35.125Z,13.87
2018-06-11T03:30:03.405Z,14.53
2018-06-11T03:32:31.615Z,13.50
2018-06-11T03:34:59.857Z,12.53
2018-06-11T03:37:28.094Z,13.37
2018-06-11T03:39:56.341Z,14.97
2018-06-11T03:42:24.586Z,14.10
2018-06-11T03:44:52.923Z,13.43
2018-06-11T03:47:21.140Z,13.90
2018-06-11T03:49:49.392Z,12.77
2018-06-11T03:52:17.605Z,12.70
2018-06-11T03:54:45.846Z,12.63
2018-06-11T03:57:14.058Z,13.13
2018-06-11T03:59:42.321Z,12.97
2018-06-11T04:02:10.566Z,13.23
2018-06-11T04:04:38.793Z,14.17
2018-06-11T04:07:07.023Z,13.80
2018-06-11T04:09:35.241Z,13.40
2018-06-11T04:12:03.499Z,13.60
2018-06-11T04:14:31.793Z,13.00
2018-06-11T04:16:59.978Z,14.27
2018-06-11T04:19:28.248Z,13.67
2018-06-11T04:21:56.425Z,13.37
2018-06-11T04:24:24.662Z,13.57
2018-06-11T04:26:53.757Z,13.47
2018-06-11T04:29:21.968Z,12.30
2018-06-11T04:31:50.197Z,12.90
2018-06-11T04:34:18.425Z,11.93
2018-06-11T04:36:46.673Z,12.70
2018-06-11T04:39:14.916Z,12.53
2018-06-11T04:41:43.134Z,12.10
2018-06-11T04:44:11.363Z,12.07
2018-06-11T04:46:39.585Z,12.43
2018-06-11T04:49:08.046Z,13.30
2018-06-11T04:51:36.242Z,12.83
2018-06-11T04:54:04.478Z,12.40
2018-06-11T04:56:32.688Z,13.53
2018-06-11T04:59:00.970Z,12.87
2018-06-11T05:01:29.343Z,13.03
2018-06-11T05:03:57.517Z,12.80
2018-06-11T05:06:25.698Z,11.97
2018-06-11T05:08:53.957Z,10.97
2018-06-11T05:11:22.142Z,12.40
2018-06-11T05:13:50.405Z,11.07
2018-06-11T05:16:18.595Z,12.43
2018-06-11T05:18:46.782Z,10.20
2018-06-11T05:21:15.031Z,10.63
2018-06-11T05:23:43.241Z,11.80
2018-06-11T05:26:11.422Z,11.20
2018-06-11T05:28:39.675Z,11.20
2018-06-11T05:31:07.841Z,10.97
2018-06-11T05:33:36.017Z,11.07
2018-06-11T05:36:04.184Z,11.20
2018-06-11T05:38:32.390Z,9.67
2018-06-11T05:41:00.618Z,10.77
2018-06-11T05:43:28.869Z,10.67
2018-06-11T05:45:57.078Z,10.23
2018-06-11T05:48:25.293Z,11.27
2018-06-11T05:50:53.479Z,13.83
2018-06-11T05:53:21.739Z,10.60
2018-06-11T05:55:49.883Z,10.30
2018-06-11T05:58:18.088Z,10.50
2018-06-11T06:00:46.339Z,10.70
2018-06-11T06:03:14.573Z,8.70
2018-06-11T06:05:42.755Z,9.40
2018-06-11T06:08:10.964Z,8.80
2018-06-11T06:10:39.161Z,9.30
2018-06-11T06:13:07.505Z,8.40
2018-06-11T06:15:35.670Z,8.67
2018-06-11T06:18:03.868Z,9.10
2018-06-11T06:20:32.115Z,9.07
2018-06-11T06:23:00.354Z,9.13
2018-06-11T06:25:28.517Z,8.50
2018-06-11T06:27:56.892Z,9.90
2018-06-11T06:30:25.387Z,8.83
2018-06-11T06:32:53.744Z,8.50
2018-06-11T06:35:21.971Z,10.17
2018-06-11T06:37:50.122Z,9.53
2018-06-11T06:40:18.381Z,8.80
2018-06-11T06:42:46.654Z,8.77
2018-06-11T06:45:15.055Z,9.07
2018-06-11T06:47:43.369Z,9.23
2018-06-11T06:50:11.321Z,8.63
2018-06-11T06:52:39.582Z,9.03
2018-06-11T06:55:07.838Z,9.00
2018-06-11T06:57:36.078Z,9.53
2018-06-11T07:00:04.788Z,9.00
2018-06-11T07:02:33.266Z,9.50
2018-06-11T07:05:01.553Z,7.13
2018-06-11T07:07:29.779Z,7.80
2018-06-11T07:09:58.189Z,8.70
2018-06-11T07:12:26.430Z,8.67
2018-06-11T07:14:54.646Z,8.67
2018-06-11T07:17:22.878Z,7.60
2018-06-11T07:19:51.140Z,7.40
2018-06-11T07:22:19.355Z,7.70
2018-06-11T07:24:47.594Z,7.33
2018-06-11T07:27:15.838Z,8.73
2018-06-11T07:29:44.102Z,8.80
2018-06-11T07:32:12.336Z,7.93
2018-06-11T07:34:40.530Z,7.73
2018-06-11T07:37:08.726Z,7.73
2018-06-11T07:39:36.981Z,9.07
2018-06-11T07:42:04.994Z,8.50
2018-06-11T07:44:33.258Z,9.20
2018-06-11T07:47:01.470Z,8.80
2018-06-11T07:49:29.727Z,8.83
2018-06-11T07:51:57.942Z,8.97
2018-06-11T07:54:26.139Z,8.70
2018-06-11T07:56:54.342Z,8.57
2018-06-11T07:59:22.497Z,8.53
2018-06-11T08:01:50.689Z,7.87
2018-06-11T08:04:18.921Z,8.30
2018-06-11T08:06:47.122Z,8.43
2018-06-11T08:09:15.274Z,7.03
2018-06-11T08:11:43.456Z,8.23
2018-06-11T08:14:11.641Z,8.90
2018-06-11T08:16:39.828Z,7.90
2018-06-11T08:19:08.012Z,6.60
2018-06-11T08:21:36.229Z,8.10
2018-06-11T08:24:04.394Z,8.20
2018-06-11T08:26:32.554Z,7.23
2018-06-11T08:29:00.797Z,6.67
2018-06-11T08:31:28.996Z,7.00
2018-06-11T08:33:57.185Z,7.47
2018-06-11T08:36:25.420Z,7.27
2018-06-11T08:38:53.817Z,7.27
2018-06-11T08:41:22.021Z,6.60
2018-06-11T08:43:50.267Z,6.40
2018-06-11T08:46:18.459Z,7.10
2018-06-11T08:48:46.695Z,6.90
2018-06-11T08:51:14.902Z,6.77
2018-06-11T08:53:43.153Z,6.63
2018-06-11T08:56:11.394Z,6.20
2018-06-11T08:58:40.354Z,5.90
2018-06-11T09:01:08.601Z,5.60
2018-06-11T09:03:36.847Z,5.13
2018-06-11T09:06:05.116Z,5.33
2018-06-11T09:08:33.331Z,5.03
2018-06-11T09:11:01.639Z,6.90
2018-06-11T09:13:29.968Z,6.80
2018-06-11T09:15:58.187Z,6.53
2018-06-11T09:18:26.509Z,6.27
2018-06-11T09:20:54.637Z,5.90
2018-06-11T09:23:22.849Z,6.27
2018-06-11T09:25:51.074Z,6.47
2018-06-11T09:28:19.339Z,6.20
2018-06-11T09:30:47.551Z,5.73
2018-06-11T09:33:16.113Z,6.70
2018-06-11T09:35:44.385Z,6.13
2018-06-11T09:38:12.648Z,5.17
2018-06-11T09:40:40.960Z,5.93
2018-06-11T09:43:09.202Z,5.53
2018-06-11T09:45:37.502Z,5.60
2018-06-11T09:48:05.760Z,5.33
2018-06-11T09:50:33.978Z,5.83
2018-06-11T09:53:02.222Z,11.57
2018-06-11T09:55:30.501Z,5.70
2018-06-11T09:57:58.882Z,5.93
2018-06-11T10:00:36.693Z,6.23
2018-06-11T10:03:05.070Z,5.30
2018-06-11T10:05:33.532Z,5.40
2018-06-11T10:08:01.802Z,5.70
2018-06-11T10:10:30.055Z,5.60
2018-06-11T10:12:58.341Z,11.83
2018-06-11T10:15:26.712Z,13.10
2018-06-11T10:17:54.902Z,5.27
2018-06-11T10:20:23.155Z,5.50
2018-06-11T10:22:51.361Z,5.20
2018-06-11T10:25:19.640Z,5.73
2018-06-11T10:27:47.943Z,9.07
2018-06-11T10:30:16.210Z,6.73
2018-06-11T10:32:44.428Z,6.63
2018-06-11T10:35:12.641Z,5.03
2018-06-11T10:37:40.949Z,6.13
2018-06-11T10:40:09.194Z,5.93
2018-06-11T10:42:37.504Z,6.00
2018-06-11T10:45:05.747Z,5.73
2018-06-11T10:47:34.030Z,5.70
2018-06-11T10:50:02.210Z,6.40
2018-06-11T10:52:30.381Z,5.63
2018-06-11T10:54:58.574Z,6.20
2018-06-11T10:57:26.737Z,6.17
2018-06-11T10:59:54.913Z,5.83
2018-06-11T11:02:23.096Z,5.40
2018-06-11T11:04:58.081Z,9.27
2018-06-11T11:07:26.266Z,7.20
2018-06-11T11:09:54.433Z,5.93
2018-06-11T11:12:22.630Z,6.47
2018-06-11T11:14:50.806Z,5.60
2018-06-11T11:17:18.994Z,5.10
2018-06-11T11:19:47.170Z,5.90
2018-06-11T11:22:15.341Z,5.87
2018-06-11T11:24:43.567Z,5.60
2018-06-11T11:27:11.770Z,6.40
2018-06-11T11:29:39.937Z,5.30
2018-06-11T11:32:08.137Z,5.63
2018-06-11T11:34:36.308Z,5.50
2018-06-11T11:37:04.545Z,5.77
2018-06-11T11:39:32.737Z,6.43
2018-06-11T11:42:00.917Z,6.07
2018-06-11T11:44:29.125Z,7.67
2018-06-11T11:46:57.347Z,6.03
2018-06-11T11:49:25.518Z,5.20
2018-06-11T11:51:53.747Z,5.13
2018-06-11T11:54:21.977Z,5.20
2018-06-11T11:56:50.200Z,5.80
2018-06-11T11:59:18.451Z,5.63
2018-06-11T12:01:46.674Z,9.60
2018-06-11T12:04:14.917Z,5.13
2018-06-11T12:06:43.151Z,5.80
2018-06-11T12:09:11.385Z,5.90
2018-06-11T12:11:39.668Z,5.33
2018-06-11T12:14:07.904Z,5.83
2018-06-11T12:16:36.150Z,5.93
2018-06-11T12:19:04.428Z,22.20
2018-06-11T12:21:32.573Z,8.30
2018-06-11T12:24:07.406Z,4.50
2018-06-11T12:26:35.610Z,5.33
2018-06-11T12:29:03.856Z,5.03
2018-06-11T12:31:31.793Z,5.10
2018-06-11T12:34:00.037Z,4.60
2018-06-11T12:36:28.242Z,6.07
2018-06-11T12:38:56.485Z,5.13
2018-06-11T12:41:24.705Z,5.10
2018-06-11T12:43:52.966Z,6.07
2018-06-11T12:46:21.210Z,5.17
2018-06-11T12:48:55.837Z,5.93
2018-06-11T12:51:24.011Z,5.77
2018-06-11T12:53:52.207Z,5.57
2018-06-11T12:56:20.572Z,5.80
2018-06-11T12:58:48.775Z,5.10
2018-06-11T13:01:16.972Z,5.60
2018-06-11T13:03:45.195Z,5.17
2018-06-11T13:06:13.402Z,5.00
2018-06-11T13:08:41.650Z,5.13
2018-06-11T13:11:09.853Z,7.10
2018-06-11T13:13:38.133Z,5.60
2018-06-11T13:16:06.321Z,5.13
2018-06-11T13:18:34.549Z,5.47
2018-06-11T13:21:02.747Z,5.53
2018-06-11T13:23:30.974Z,5.40
2018-06-11T13:25:59.207Z,5.83
2018-06-11T13:28:27.483Z,5.63
2018-06-11T13:30:55.698Z,5.60
2018-06-11T13:33:23.909Z,5.53
2018-06-11T13:35:52.126Z,4.90
2018-06-11T13:38:20.356Z,4.83
2018-06-11T13:40:48.557Z,4.80
2018-06-11T13:43:16.873Z,5.50
2018-06-11T13:45:45.065Z,5.60
2018-06-11T13:48:13.274Z,8.93
2018-06-11T13:50:41.513Z,5.90
2018-06-11T13:53:09.753Z,4.97
2018-06-11T13:55:38.007Z,5.30
2018-06-11T13:58:06.231Z,5.70
2018-06-11T14:00:34.453Z,4.60
2018-06-11T14:03:02.666Z,5.70
2018-06-11T14:05:30.896Z,6.23
2018-06-11T14:07:59.194Z,5.47
2018-06-11T14:10:27.405Z,5.93
2018-06-11T14:12:55.612Z,24.63
2018-06-11T14:15:23.818Z,6.67
2018-06-11T14:17:52.130Z,5.10
2018-06-11T14:20:20.352Z,6.23
2018-06-11T14:22:48.591Z,5.10
2018-06-11T14:25:16.816Z,5.57
2018-06-11T14:27:45.009Z,5.30
2018-06-11T14:30:13.219Z,5.03
2018-06-11T14:32:41.532Z,4.40
2018-06-11T14:35:09.799Z,5.27
2018-06-11T14:37:38.170Z,4.87
2018-06-11T14:40:06.382Z,4.57
2018-06-11T14:42:34.586Z,4.87
2018-06-11T14:45:02.838Z,4.87
2018-06-11T14:47:31.073Z,5.30
2018-06-11T14:49:59.304Z,4.70
2018-06-11T14:52:27.596Z,4.83
2018-06-11T14:54:55.800Z,5.20
2018-06-11T14:57:23.961Z,5.47
2018-06-11T14:59:52.109Z,4.50
2018-06-11T15:02:20.261Z,6.03
2018-06-11T15:04:48.435Z,5.47
2018-06-11T15:07:16.608Z,5.17
2018-06-11T15:09:44.761Z,5.07
2018-06-11T15:12:12.920Z,4.77
2018-06-11T15:14:41.098Z,5.97
2018-06-11T15:17:09.296Z,6.67
2018-06-11T15:19:37.625Z,5.37
2018-06-11T15:22:05.824Z,6.70
2018-06-11T15:24:34.153Z,6.37
2018-06-11T15:27:02.404Z,7.07
2018-06-11T15:29:30.622Z,6.07
2018-06-11T15:31:58.921Z,5.43
2018-06-11T15:34:27.114Z,6.37
2018-06-11T15:36:55.317Z,17.53
2018-06-11T15:39:23.523Z,7.20
2018-06-11T15:41:51.766Z,6.37
2018-06-11T15:44:19.967Z,6.20
2018-06-11T15:46:48.214Z,7.17
2018-06-11T15:49:16.469Z,5.77
2018-06-11T15:51:44.688Z,5.83
2018-06-11T15:54:12.900Z,5.43
2018-06-11T15:56:41.175Z,5.87
2018-06-11T15:59:09.397Z,4.83
2018-06-11T16:01:37.802Z,6.60
2018-06-11T16:04:06.022Z,6.00
2018-06-11T16:06:34.236Z,5.77
2018-06-11T16:09:02.506Z,7.10
2018-06-11T16:11:30.770Z,6.20
2018-06-11T16:13:59.021Z,6.43
2018-06-11T16:16:27.236Z,6.30
2018-06-11T16:18:55.422Z,5.40
2018-06-11T16:21:23.690Z,8.83
2018-06-11T16:23:51.939Z,8.50
2018-06-11T16:26:20.225Z,13.20
2018-06-11T16:28:48.480Z,11.40
2018-06-11T16:31:16.754Z,8.77
2018-06-11T16:33:44.969Z,7.13
2018-06-11T16:36:13.225Z,6.70
2018-06-11T16:38:41.429Z,7.20
2018-06-11T16:41:09.646Z,6.87
2018-06-11T16:43:44.334Z,6.07
2018-06-11T16:46:15.517Z,8.20
2018-06-11T16:48:43.736Z,6.20
2018-06-11T16:51:11.935Z,6.67
2018-06-11T16:53:40.133Z,4.30
2018-06-11T16:56:08.298Z,4.67
2018-06-11T16:58:36.508Z,4.00
2018-06-11T17:01:04.742Z,3.97
2018-06-11T17:03:32.898Z,3.30
2018-06-11T17:06:01.067Z,2.80
2018-06-11T17:08:29.269Z,3.53
2018-06-11T17:10:57.420Z,3.83
2018-06-11T17:13:25.590Z,4.20
2018-06-11T17:15:53.743Z,3.70
2018-06-11T17:18:21.905Z,4.00
2018-06-11T17:20:50.054Z,4.00
2018-06-11T17:23:18.298Z,4.43
2018-06-11T17:25:46.487Z,4.57
2018-06-11T17:28:14.688Z,5.53
2018-06-11T17:30:42.592Z,3.80
2018-06-11T17:33:10.759Z,4.73
2018-06-11T17:35:38.969Z,3.63
2018-06-11T17:38:07.214Z,3.00
2018-06-11T17:40:35.410Z,3.20
2018-06-11T17:43:03.603Z,3.60
2018-06-11T17:45:31.757Z,3.13
2018-06-11T17:47:59.928Z,3.20
2018-06-11T17:50:28.121Z,2.80
2018-06-11T17:52:56.345Z,2.90
2018-06-11T17:55:24.657Z,2.10
2018-06-11T17:57:52.920Z,2.73
2018-06-11T18:00:21.163Z,2.17
2018-06-11T18:02:49.321Z,3.00
2018-06-11T18:05:17.571Z,2.80
2018-06-11T18:07:45.746Z,3.33
2018-06-11T18:10:13.930Z,2.80
2018-06-11T18:12:42.151Z,2.80
2018-06-11T18:15:16.720Z,3.03
2018-06-11T18:17:44.917Z,3.33
2018-06-11T18:20:13.154Z,4.00
2018-06-11T18:22:41.342Z,3.27
2018-06-11T18:25:09.551Z,3.60
2018-06-11T18:27:37.842Z,3.37
2018-06-11T18:30:06.066Z,3.03
2018-06-11T18:32:34.267Z,4.23
2018-06-11T18:35:02.446Z,3.90
2018-06-11T18:37:30.648Z,3.70
2018-06-11T18:39:59.042Z,5.40
2018-06-11T18:42:27.260Z,5.17
2018-06-11T18:44:55.457Z,5.30
2018-06-11T18:47:23.684Z,5.23
2018-06-11T18:49:51.641Z,5.20
2018-06-11T18:52:19.833Z,5.33
2018-06-11T18:54:48.046Z,6.43
2018-06-11T18:57:16.250Z,5.10
2018-06-11T18:59:44.473Z,6.30
2018-06-11T19:02:12.421Z,6.07
2018-06-11T19:04:40.727Z,7.10
2018-06-11T19:07:08.886Z,7.37
2018-06-11T19:09:37.091Z,6.40
2018-06-11T19:12:05.356Z,6.00
2018-06-11T19:14:33.546Z,6.70
2018-06-11T19:17:01.766Z,6.40
2018-06-11T19:19:29.957Z,5.63
2018-06-11T19:21:58.158Z,7.07
2018-06-11T19:24:26.378Z,6.80
2018-06-11T19:26:54.581Z,6.37
2018-06-11T19:29:22.830Z,7.00
2018-06-11T19:31:51.019Z,5.40
2018-06-11T19:34:19.225Z,5.97
2018-06-11T19:36:47.419Z,6.00
2018-06-11T19:39:15.603Z,5.50
2018-06-11T19:41:43.814Z,5.23
2018-06-11T19:44:12.030Z,4.87
2018-06-11T19:46:40.275Z,4.97
2018-06-11T19:49:08.495Z,5.67
2018-06-11T19:51:36.649Z,5.03
2018-06-11T19:54:04.840Z,4.70
2018-06-11T19:56:33.116Z,5.30
2018-06-11T19:59:01.250Z,4.53
2018-06-11T20:01:29.417Z,4.73
2018-06-11T20:03:57.672Z,4.03
2018-06-11T20:06:25.917Z,3.67
2018-06-11T20:08:54.091Z,3.47
2018-06-11T20:11:22.265Z,4.00
2018-06-11T20:13:50.435Z,3.47
2018-06-11T20:16:18.626Z,3.50
2018-06-11T20:18:46.850Z,3.70
2018-06-11T20:21:15.066Z,4.90
2018-06-11T20:23:43.255Z,4.33
2018-06-11T20:26:11.531Z,5.97
2018-06-11T20:28:39.681Z,4.90
2018-06-11T20:31:07.850Z,4.97
2018-06-11T20:33:36.029Z,3.63
2018-06-11T20:36:04.193Z,3.00
2018-06-11T20:38:32.341Z,3.77
2018-06-11T20:41:00.525Z,3.83
2018-06-11T20:43:28.697Z,3.40
2018-06-11T20:45:56.883Z,3.10
2018-06-11T20:48:25.058Z,3.70
2018-06-11T20:50:53.249Z,3.37
2018-06-11T20:53:21.497Z,3.63
2018-06-11T20:55:49.678Z,3.27
2018-06-11T20:58:17.837Z,4.67
2018-06-11T21:00:46.118Z,4.20
2018-06-11T21:03:14.313Z,4.03
2018-06-11T21:05:42.498Z,5.57
2018-06-11T21:08:10.674Z,5.03
2018-06-11T21:10:38.856Z,5.07
2018-06-11T21:13:07.101Z,4.80
2018-06-11T21:15:35.437Z,4.50
2018-06-11T21:18:03.591Z,4.77
2018-06-11T21:20:31.745Z,4.50
2018-06-11T21:22:59.914Z,4.40
2018-06-11T21:25:28.106Z,3.80
2018-06-11T21:30:30.865Z,4.00
2018-06-11T21:32:59.037Z,2.90
2018-06-11T21:35:27.215Z,3.00
2018-06-11T21:37:55.170Z,3.10
2018-06-11T21:40:23.363Z,2.37
2018-06-11T21:42:51.559Z,3.80
2018-06-11T21:45:19.709Z,2.27
2018-06-11T21:47:47.889Z,2.70
2018-06-11T21:50:16.150Z,2.70
2018-06-11T21:52:44.345Z,3.03
2018-06-11T21:55:12.584Z,2.70
2018-06-11T21:57:40.851Z,2.90
2018-06-11T22:00:09.080Z,2.80
2018-06-11T22:02:37.322Z,2.13
2018-06-11T22:05:05.542Z,2.67
2018-06-11T22:07:33.746Z,3.63
2018-06-11T22:10:01.993Z,2.97
2018-06-11T22:12:30.259Z,2.60
2018-06-11T22:14:58.463Z,2.93
2018-06-11T22:17:26.656Z,3.00
2018-06-11T22:19:54.867Z,4.03
2018-06-11T22:22:23.090Z,3.63
2018-06-11T22:24:51.311Z,3.00
2018-06-11T22:27:19.501Z,3.00
2018-06-11T22:29:47.772Z,3.40
2018-06-11T22:32:15.988Z,3.73
2018-06-11T22:34:44.178Z,3.80
2018-06-11T22:37:12.385Z,2.83
2018-06-11T22:39:40.590Z,43.73
2018-06-11T22:42:08.806Z,4.27
2018-06-11T22:44:37.006Z,7.00
2018-06-11T22:47:04.986Z,4.20
2018-06-11T22:49:33.210Z,3.83
2018-06-11T22:52:01.426Z,3.70
2018-06-11T22:54:29.617Z,4.60
2018-06-11T22:57:04.414Z,3.90
2018-06-11T22:59:32.614Z,4.40
2018-06-11T23:02:00.801Z,3.33
2018-06-11T23:04:28.998Z,3.30
2018-06-11T23:06:57.224Z,3.70
2018-06-11T23:09:25.421Z,3.00
2018-06-11T23:11:53.618Z,3.40
2018-06-11T23:14:21.842Z,3.13
2018-06-11T23:16:50.054Z,4.10
2018-06-11T23:19:18.247Z,4.30
2018-06-11T23:21:46.492Z,3.77
2018-06-11T23:24:14.673Z,3.70
2018-06-11T23:26:43.026Z,3.70
2018-06-11T23:29:11.429Z,3.43
2018-06-11T23:31:39.647Z,3.60
2018-06-11T23:34:07.871Z,3.60
2018-06-11T23:36:36.070Z,4.40
2018-06-11T23:39:05.825Z,3.80
2018-06-11T23:41:34.000Z,3.90
2018-06-11T23:44:02.180Z,5.30
2018-06-11T23:46:30.313Z,4.40
2018-06-11T23:48:58.505Z,4.37
2018-06-11T23:51:26.785Z,4.87
2018-06-11T23:53:54.985Z,3.50
2018-06-11T23:56:23.190Z,4.23
2018-06-11T23:58:51.392Z,3.93
